sensor_id;sensor_type;location;lat;lon;timestamp;P1;durP1;ratioP1;P2;durP2;ratioP2
5460;SDS011;2753;49.196;8.286;2024-02-16T00:00:59;9.63;;;5.40;;
5460;SDS011;2753;49.196;8.286;2024-02-16T00:03:26;10.30;;;5.63;;
5460;SDS011;2753;49.196;8.286;2024-02-16T00:05:52;13.17;;;5.70;;
5460;SDS011;2753;49.196;8.286;2024-02-16T00:08:18;15.23;;;6.20;;
5460;SDS011;2753;49.196;8.286;2024-02-16T00:10:45;12.93;;;6.00;;
5460;SDS011;2753;49.196;8.286;2024-02-16T00:13:13;7.93;;;5.43;;
5460;SDS011;2753;49.196;8.286;2024-02-16T00:15:39;12.43;;;5.40;;
5460;SDS011;2753;49.196;8.286;2024-02-16T00:18:05;11.63;;;5.87;;
5460;SDS011;2753;49.196;8.286;2024-02-16T00:20:34;21.40;;;6.23;;
5460;SDS011;2753;49.196;8.286;2024-02-16T00:23:00;6.00;;;4.90;;
5460;SDS011;2753;49.196;8.286;2024-02-16T00:25:26;13.10;;;5.20;;
5460;SDS011;2753;49.196;8.286;2024-02-16T00:27:52;9.50;;;5.77;;
5460;SDS011;2753;49.196;8.286;2024-02-16T00:30:18;10.13;;;5.37;;
5460;SDS011;2753;49.196;8.286;2024-02-16T00:32:44;11.43;;;4.90;;
5460;SDS011;2753;49.196;8.286;2024-02-16T00:35:10;20.80;;;5.13;;
5460;SDS011;2753;49.196;8.286;2024-02-16T00:37:36;9.53;;;4.80;;
5460;SDS011;2753;49.196;8.286;2024-02-16T00:40:03;5.83;;;4.93;;
5460;SDS011;2753;49.196;8.286;2024-02-16T00:42:31;9.90;;;5.37;;
5460;SDS011;2753;49.196;8.286;2024-02-16T00:44:57;13.57;;;4.43;;
5460;SDS011;2753;49.196;8.286;2024-02-16T00:47:25;12.27;;;4.40;;
5460;SDS011;2753;49.196;8.286;2024-02-16T00:49:52;13.57;;;5.30;;
5460;SDS011;2753;49.196;8.286;2024-02-16T00:52:18;9.80;;;4.77;;
5460;SDS011;2753;49.196;8.286;2024-02-16T00:54:44;7.80;;;4.37;;
5460;SDS011;2753;49.196;8.286;2024-02-16T00:57:11;9.13;;;4.97;;
5460;SDS011;2753;49.196;8.286;2024-02-16T00:59:39;14.40;;;5.33;;
5460;SDS011;2753;49.196;8.286;2024-02-16T01:02:05;10.37;;;5.17;;
5460;SDS011;2753;49.196;8.286;2024-02-16T01:04:31;12.60;;;5.40;;
5460;SDS011;2753;49.196;8.286;2024-02-16T01:06:57;11.50;;;4.97;;
5460;SDS011;2753;49.196;8.286;2024-02-16T01:09:23;8.83;;;5.80;;
5460;SDS011;2753;49.196;8.286;2024-02-16T01:11:49;9.53;;;4.60;;
5460;SDS011;2753;49.196;8.286;2024-02-16T01:14:14;13.70;;;5.60;;
5460;SDS011;2753;49.196;8.286;2024-02-16T01:16:40;8.20;;;4.70;;
5460;SDS011;2753;49.196;8.286;2024-02-16T01:19:09;9.27;;;4.80;;
5460;SDS011;2753;49.196;8.286;2024-02-16T01:21:35;9.57;;;4.47;;
5460;SDS011;2753;49.196;8.286;2024-02-16T01:24:00;13.57;;;5.70;;
5460;SDS011;2753;49.196;8.286;2024-02-16T01:26:27;13.17;;;5.93;;
5460;SDS011;2753;49.196;8.286;2024-02-16T01:28:53;14.27;;;5.60;;
5460;SDS011;2753;49.196;8.286;2024-02-16T01:31:19;11.90;;;5.77;;
5460;SDS011;2753;49.196;8.286;2024-02-16T01:33:44;14.10;;;6.40;;
5460;SDS011;2753;49.196;8.286;2024-02-16T01:36:10;9.67;;;6.73;;
5460;SDS011;2753;49.196;8.286;2024-02-16T01:38:36;9.83;;;5.90;;
5460;SDS011;2753;49.196;8.286;2024-02-16T01:41:02;9.17;;;5.97;;
5460;SDS011;2753;49.196;8.286;2024-02-16T01:43:27;9.10;;;5.90;;
5460;SDS011;2753;49.196;8.286;2024-02-16T01:45:53;12.47;;;5.73;;
5460;SDS011;2753;49.196;8.286;2024-02-16T01:48:19;9.30;;;5.47;;
5460;SDS011;2753;49.196;8.286;2024-02-16T01:50:45;14.10;;;6.83;;
5460;SDS011;2753;49.196;8.286;2024-02-16T01:53:13;12.67;;;5.87;;
5460;SDS011;2753;49.196;8.286;2024-02-16T01:55:43;12.03;;;6.10;;
5460;SDS011;2753;49.196;8.286;2024-02-16T01:58:10;9.63;;;5.80;;
5460;SDS011;2753;49.196;8.286;2024-02-16T02:00:39;16.20;;;6.90;;
5460;SDS011;2753;49.196;8.286;2024-02-16T02:03:08;13.63;;;5.90;;
5460;SDS011;2753;49.196;8.286;2024-02-16T02:05:42;15.70;;;5.37;;
5460;SDS011;2753;49.196;8.286;2024-02-16T02:08:10;10.90;;;5.57;;
5460;SDS011;2753;49.196;8.286;2024-02-16T02:10:37;12.67;;;5.60;;
5460;SDS011;2753;49.196;8.286;2024-02-16T02:13:02;13.43;;;6.20;;
5460;SDS011;2753;49.196;8.286;2024-02-16T02:15:28;11.00;;;5.00;;
5460;SDS011;2753;49.196;8.286;2024-02-16T02:17:54;11.43;;;4.67;;
5460;SDS011;2753;49.196;8.286;2024-02-16T02:20:19;10.77;;;5.60;;
5460;SDS011;2753;49.196;8.286;2024-02-16T02:22:45;9.40;;;5.60;;
5460;SDS011;2753;49.196;8.286;2024-02-16T02:25:11;22.63;;;5.73;;
5460;SDS011;2753;49.196;8.286;2024-02-16T02:27:37;7.73;;;5.63;;
5460;SDS011;2753;49.196;8.286;2024-02-16T02:30:03;13.83;;;6.00;;
5460;SDS011;2753;49.196;8.286;2024-02-16T02:32:30;8.37;;;5.00;;
5460;SDS011;2753;49.196;8.286;2024-02-16T02:34:56;9.47;;;5.60;;
5460;SDS011;2753;49.196;8.286;2024-02-16T02:37:21;10.50;;;5.67;;
5460;SDS011;2753;49.196;8.286;2024-02-16T02:39:47;10.37;;;5.40;;
5460;SDS011;2753;49.196;8.286;2024-02-16T02:42:13;14.63;;;5.70;;
5460;SDS011;2753;49.196;8.286;2024-02-16T02:44:39;16.60;;;6.50;;
5460;SDS011;2753;49.196;8.286;2024-02-16T02:47:05;14.77;;;6.23;;
5460;SDS011;2753;49.196;8.286;2024-02-16T02:49:31;9.07;;;5.10;;
5460;SDS011;2753;49.196;8.286;2024-02-16T02:51:59;13.17;;;5.43;;
5460;SDS011;2753;49.196;8.286;2024-02-16T02:54:25;10.37;;;5.30;;
5460;SDS011;2753;49.196;8.286;2024-02-16T02:56:51;16.67;;;6.17;;
5460;SDS011;2753;49.196;8.286;2024-02-16T02:59:16;11.83;;;5.13;;
5460;SDS011;2753;49.196;8.286;2024-02-16T03:01:42;14.60;;;5.33;;
5460;SDS011;2753;49.196;8.286;2024-02-16T03:04:08;13.00;;;6.10;;
5460;SDS011;2753;49.196;8.286;2024-02-16T03:06:34;11.20;;;5.67;;
5460;SDS011;2753;49.196;8.286;2024-02-16T03:09:00;9.73;;;4.90;;
5460;SDS011;2753;49.196;8.286;2024-02-16T03:11:25;8.07;;;5.70;;
5460;SDS011;2753;49.196;8.286;2024-02-16T03:13:51;18.70;;;5.90;;
5460;SDS011;2753;49.196;8.286;2024-02-16T03:16:17;18.30;;;5.23;;
5460;SDS011;2753;49.196;8.286;2024-02-16T03:18:42;10.30;;;6.57;;
5460;SDS011;2753;49.196;8.286;2024-02-16T03:21:12;20.13;;;6.03;;
5460;SDS011;2753;49.196;8.286;2024-02-16T03:23:41;17.77;;;5.33;;
5460;SDS011;2753;49.196;8.286;2024-02-16T03:26:13;13.90;;;6.07;;
5460;SDS011;2753;49.196;8.286;2024-02-16T03:28:39;18.10;;;6.73;;
5460;SDS011;2753;49.196;8.286;2024-02-16T03:31:05;10.53;;;6.17;;
5460;SDS011;2753;49.196;8.286;2024-02-16T03:33:33;13.10;;;6.40;;
5460;SDS011;2753;49.196;8.286;2024-02-16T03:35:58;11.37;;;5.77;;
5460;SDS011;2753;49.196;8.286;2024-02-16T03:38:25;11.20;;;5.73;;
5460;SDS011;2753;49.196;8.286;2024-02-16T03:40:51;14.00;;;6.67;;
5460;SDS011;2753;49.196;8.286;2024-02-16T03:43:17;18.73;;;4.90;;
5460;SDS011;2753;49.196;8.286;2024-02-16T03:45:42;11.70;;;6.13;;
5460;SDS011;2753;49.196;8.286;2024-02-16T03:48:08;12.17;;;5.60;;
5460;SDS011;2753;49.196;8.286;2024-02-16T03:50:37;12.63;;;6.80;;
5460;SDS011;2753;49.196;8.286;2024-02-16T03:53:03;13.53;;;7.20;;
5460;SDS011;2753;49.196;8.286;2024-02-16T03:55:29;7.80;;;5.90;;
5460;SDS011;2753;49.196;8.286;2024-02-16T03:57:56;10.60;;;7.13;;
5460;SDS011;2753;49.196;8.286;2024-02-16T04:00:22;7.83;;;6.10;;
5460;SDS011;2753;49.196;8.286;2024-02-16T04:02:48;18.53;;;6.40;;
5460;SDS011;2753;49.196;8.286;2024-02-16T04:05:14;14.87;;;6.73;;
5460;SDS011;2753;49.196;8.286;2024-02-16T04:07:39;15.20;;;7.07;;
5460;SDS011;2753;49.196;8.286;2024-02-16T04:10:05;12.53;;;7.00;;
5460;SDS011;2753;49.196;8.286;2024-02-16T04:12:32;15.10;;;7.83;;
5460;SDS011;2753;49.196;8.286;2024-02-16T04:14:57;12.90;;;7.20;;
5460;SDS011;2753;49.196;8.286;2024-02-16T04:17:23;14.63;;;7.00;;
5460;SDS011;2753;49.196;8.286;2024-02-16T04:19:49;19.10;;;6.23;;
5460;SDS011;2753;49.196;8.286;2024-02-16T04:22:15;13.07;;;6.83;;
5460;SDS011;2753;49.196;8.286;2024-02-16T04:24:40;11.10;;;6.93;;
5460;SDS011;2753;49.196;8.286;2024-02-16T04:27:06;21.93;;;7.30;;
5460;SDS011;2753;49.196;8.286;2024-02-16T04:29:32;16.33;;;7.07;;
5460;SDS011;2753;49.196;8.286;2024-02-16T04:31:57;13.30;;;6.63;;
5460;SDS011;2753;49.196;8.286;2024-02-16T04:34:23;11.93;;;7.20;;
5460;SDS011;2753;49.196;8.286;2024-02-16T04:36:49;13.53;;;7.10;;
5460;SDS011;2753;49.196;8.286;2024-02-16T04:39:14;10.63;;;6.17;;
5460;SDS011;2753;49.196;8.286;2024-02-16T04:41:42;9.83;;;7.00;;
5460;SDS011;2753;49.196;8.286;2024-02-16T04:44:07;13.23;;;7.13;;
5460;SDS011;2753;49.196;8.286;2024-02-16T04:46:33;12.67;;;7.20;;
5460;SDS011;2753;49.196;8.286;2024-02-16T04:48:59;16.30;;;7.50;;
5460;SDS011;2753;49.196;8.286;2024-02-16T04:51:24;18.00;;;7.30;;
5460;SDS011;2753;49.196;8.286;2024-02-16T04:53:50;11.83;;;7.27;;
5460;SDS011;2753;49.196;8.286;2024-02-16T04:56:16;12.30;;;7.10;;
5460;SDS011;2753;49.196;8.286;2024-02-16T04:58:42;19.17;;;7.47;;
5460;SDS011;2753;49.196;8.286;2024-02-16T05:01:07;13.57;;;7.63;;
5460;SDS011;2753;49.196;8.286;2024-02-16T05:03:36;14.33;;;8.20;;
5460;SDS011;2753;49.196;8.286;2024-02-16T05:06:02;13.67;;;8.20;;
5460;SDS011;2753;49.196;8.286;2024-02-16T05:08:28;14.53;;;8.07;;
5460;SDS011;2753;49.196;8.286;2024-02-16T05:10:53;17.67;;;8.40;;
5460;SDS011;2753;49.196;8.286;2024-02-16T05:13:19;18.20;;;8.20;;
5460;SDS011;2753;49.196;8.286;2024-02-16T05:15:45;19.37;;;7.80;;
5460;SDS011;2753;49.196;8.286;2024-02-16T05:18:13;12.87;;;7.50;;
5460;SDS011;2753;49.196;8.286;2024-02-16T05:20:39;19.73;;;7.90;;
5460;SDS011;2753;49.196;8.286;2024-02-16T05:23:05;14.43;;;8.00;;
5460;SDS011;2753;49.196;8.286;2024-02-16T05:25:31;15.90;;;8.30;;
5460;SDS011;2753;49.196;8.286;2024-02-16T05:27:56;19.60;;;9.10;;
5460;SDS011;2753;49.196;8.286;2024-02-16T05:30:22;19.83;;;8.33;;
5460;SDS011;2753;49.196;8.286;2024-02-16T05:32:48;22.33;;;8.53;;
5460;SDS011;2753;49.196;8.286;2024-02-16T05:35:14;11.83;;;7.83;;
5460;SDS011;2753;49.196;8.286;2024-02-16T05:37:42;19.23;;;9.20;;
5460;SDS011;2753;49.196;8.286;2024-02-16T05:40:10;14.00;;;8.10;;
5460;SDS011;2753;49.196;8.286;2024-02-16T05:42:56;13.63;;;7.80;;
5460;SDS011;2753;49.196;8.286;2024-02-16T05:45:23;20.80;;;8.47;;
5460;SDS011;2753;49.196;8.286;2024-02-16T05:47:50;19.50;;;9.10;;
5460;SDS011;2753;49.196;8.286;2024-02-16T05:50:16;16.37;;;9.00;;
5460;SDS011;2753;49.196;8.286;2024-02-16T05:52:42;18.10;;;9.17;;
5460;SDS011;2753;49.196;8.286;2024-02-16T05:55:09;15.10;;;8.27;;
5460;SDS011;2753;49.196;8.286;2024-02-16T05:57:36;17.13;;;9.27;;
5460;SDS011;2753;49.196;8.286;2024-02-16T06:00:05;17.57;;;8.00;;
5460;SDS011;2753;49.196;8.286;2024-02-16T06:02:33;22.63;;;8.60;;
5460;SDS011;2753;49.196;8.286;2024-02-16T06:05:00;16.13;;;8.83;;
5460;SDS011;2753;49.196;8.286;2024-02-16T06:07:27;22.57;;;9.57;;
5460;SDS011;2753;49.196;8.286;2024-02-16T06:09:54;15.03;;;7.70;;
5460;SDS011;2753;49.196;8.286;2024-02-16T06:12:20;23.90;;;12.43;;
5460;SDS011;2753;49.196;8.286;2024-02-16T06:14:46;24.70;;;13.43;;
5460;SDS011;2753;49.196;8.286;2024-02-16T06:17:13;34.97;;;16.37;;
5460;SDS011;2753;49.196;8.286;2024-02-16T06:19:42;29.67;;;16.07;;
5460;SDS011;2753;49.196;8.286;2024-02-16T06:22:08;36.70;;;14.87;;
5460;SDS011;2753;49.196;8.286;2024-02-16T06:24:38;28.20;;;13.63;;
5460;SDS011;2753;49.196;8.286;2024-02-16T06:27:03;33.17;;;16.27;;
5460;SDS011;2753;49.196;8.286;2024-02-16T06:29:29;42.87;;;19.57;;
5460;SDS011;2753;49.196;8.286;2024-02-16T06:31:55;50.03;;;16.77;;
5460;SDS011;2753;49.196;8.286;2024-02-16T06:34:21;51.00;;;18.07;;
5460;SDS011;2753;49.196;8.286;2024-02-16T06:36:47;47.77;;;19.37;;
5460;SDS011;2753;49.196;8.286;2024-02-16T06:39:16;41.93;;;16.10;;
5460;SDS011;2753;49.196;8.286;2024-02-16T06:41:43;37.20;;;15.63;;
5460;SDS011;2753;49.196;8.286;2024-02-16T06:44:14;51.97;;;17.80;;
5460;SDS011;2753;49.196;8.286;2024-02-16T06:46:41;40.90;;;17.37;;
5460;SDS011;2753;49.196;8.286;2024-02-16T06:49:09;30.53;;;21.27;;
5460;SDS011;2753;49.196;8.286;2024-02-16T06:51:35;22.10;;;11.40;;
5460;SDS011;2753;49.196;8.286;2024-02-16T06:54:02;24.60;;;10.97;;
5460;SDS011;2753;49.196;8.286;2024-02-16T06:56:29;20.00;;;10.30;;
5460;SDS011;2753;49.196;8.286;2024-02-16T06:58:55;16.53;;;8.40;;
5460;SDS011;2753;49.196;8.286;2024-02-16T07:01:21;19.03;;;9.87;;
5460;SDS011;2753;49.196;8.286;2024-02-16T07:03:47;30.57;;;9.20;;
5460;SDS011;2753;49.196;8.286;2024-02-16T07:06:13;21.77;;;10.03;;
5460;SDS011;2753;49.196;8.286;2024-02-16T07:08:42;18.57;;;9.23;;
5460;SDS011;2753;49.196;8.286;2024-02-16T07:11:11;27.00;;;9.80;;
5460;SDS011;2753;49.196;8.286;2024-02-16T07:13:38;17.97;;;8.33;;
5460;SDS011;2753;49.196;8.286;2024-02-16T07:16:09;18.20;;;8.37;;
5460;SDS011;2753;49.196;8.286;2024-02-16T07:18:35;16.70;;;7.77;;
5460;SDS011;2753;49.196;8.286;2024-02-16T07:21:01;15.57;;;8.00;;
5460;SDS011;2753;49.196;8.286;2024-02-16T07:23:27;16.33;;;9.50;;
5460;SDS011;2753;49.196;8.286;2024-02-16T07:25:54;12.80;;;8.20;;
5460;SDS011;2753;49.196;8.286;2024-02-16T07:28:23;15.80;;;8.83;;
5460;SDS011;2753;49.196;8.286;2024-02-16T07:30:49;11.67;;;7.97;;
5460;SDS011;2753;49.196;8.286;2024-02-16T07:33:16;14.27;;;8.17;;
5460;SDS011;2753;49.196;8.286;2024-02-16T07:35:42;14.80;;;7.83;;
5460;SDS011;2753;49.196;8.286;2024-02-16T07:38:09;17.30;;;8.27;;
5460;SDS011;2753;49.196;8.286;2024-02-16T07:40:35;12.97;;;7.43;;
5460;SDS011;2753;49.196;8.286;2024-02-16T07:43:00;12.60;;;7.63;;
5460;SDS011;2753;49.196;8.286;2024-02-16T07:45:26;14.90;;;7.83;;
5460;SDS011;2753;49.196;8.286;2024-02-16T07:47:52;26.03;;;7.93;;
5460;SDS011;2753;49.196;8.286;2024-02-16T07:50:21;17.07;;;7.57;;
5460;SDS011;2753;49.196;8.286;2024-02-16T07:52:47;16.20;;;7.10;;
5460;SDS011;2753;49.196;8.286;2024-02-16T07:55:14;14.93;;;7.60;;
5460;SDS011;2753;49.196;8.286;2024-02-16T07:57:39;18.47;;;7.90;;
5460;SDS011;2753;49.196;8.286;2024-02-16T08:00:05;13.23;;;6.93;;
5460;SDS011;2753;49.196;8.286;2024-02-16T08:02:35;16.83;;;8.30;;
5460;SDS011;2753;49.196;8.286;2024-02-16T08:05:00;21.43;;;10.90;;
5460;SDS011;2753;49.196;8.286;2024-02-16T08:07:26;20.87;;;8.93;;
5460;SDS011;2753;49.196;8.286;2024-02-16T08:09:52;17.87;;;9.40;;
5460;SDS011;2753;49.196;8.286;2024-02-16T08:12:17;30.67;;;11.10;;
5460;SDS011;2753;49.196;8.286;2024-02-16T08:14:43;13.47;;;7.63;;
5460;SDS011;2753;49.196;8.286;2024-02-16T08:17:13;32.30;;;12.97;;
5460;SDS011;2753;49.196;8.286;2024-02-16T08:19:38;26.80;;;10.73;;
5460;SDS011;2753;49.196;8.286;2024-02-16T08:22:05;19.73;;;10.60;;
5460;SDS011;2753;49.196;8.286;2024-02-16T08:24:34;19.63;;;9.40;;
5460;SDS011;2753;49.196;8.286;2024-02-16T08:27:01;28.80;;;9.40;;
5460;SDS011;2753;49.196;8.286;2024-02-16T08:29:27;14.53;;;8.70;;
5460;SDS011;2753;49.196;8.286;2024-02-16T08:31:53;28.50;;;11.57;;
5460;SDS011;2753;49.196;8.286;2024-02-16T08:34:20;16.40;;;8.50;;
5460;SDS011;2753;49.196;8.286;2024-02-16T08:36:46;14.43;;;8.07;;
5460;SDS011;2753;49.196;8.286;2024-02-16T08:39:13;13.30;;;7.70;;
5460;SDS011;2753;49.196;8.286;2024-02-16T08:41:39;30.57;;;12.10;;
5460;SDS011;2753;49.196;8.286;2024-02-16T08:44:06;24.00;;;11.27;;
5460;SDS011;2753;49.196;8.286;2024-02-16T08:46:35;24.33;;;12.10;;
5460;SDS011;2753;49.196;8.286;2024-02-16T08:49:05;34.20;;;13.90;;
5460;SDS011;2753;49.196;8.286;2024-02-16T08:51:31;41.50;;;16.63;;
5460;SDS011;2753;49.196;8.286;2024-02-16T08:53:58;32.60;;;12.97;;
5460;SDS011;2753;49.196;8.286;2024-02-16T08:56:24;13.40;;;7.20;;
5460;SDS011;2753;49.196;8.286;2024-02-16T08:58:49;24.00;;;9.70;;
5460;SDS011;2753;49.196;8.286;2024-02-16T09:01:15;18.13;;;9.20;;
5460;SDS011;2753;49.196;8.286;2024-02-16T09:03:42;11.00;;;7.80;;
5460;SDS011;2753;49.196;8.286;2024-02-16T09:06:07;19.13;;;8.23;;
5460;SDS011;2753;49.196;8.286;2024-02-16T09:08:33;14.90;;;9.90;;
5460;SDS011;2753;49.196;8.286;2024-02-16T09:11:03;16.20;;;7.87;;
5460;SDS011;2753;49.196;8.286;2024-02-16T09:13:36;17.40;;;6.83;;
5460;SDS011;2753;49.196;8.286;2024-02-16T09:16:04;16.67;;;8.07;;
5460;SDS011;2753;49.196;8.286;2024-02-16T09:18:30;22.50;;;9.70;;
5460;SDS011;2753;49.196;8.286;2024-02-16T09:20:55;12.50;;;7.93;;
5460;SDS011;2753;49.196;8.286;2024-02-16T09:23:21;9.03;;;6.00;;
5460;SDS011;2753;49.196;8.286;2024-02-16T09:25:47;34.20;;;12.87;;
5460;SDS011;2753;49.196;8.286;2024-02-16T09:28:14;16.97;;;9.07;;
5460;SDS011;2753;49.196;8.286;2024-02-16T09:30:40;24.67;;;10.27;;
5460;SDS011;2753;49.196;8.286;2024-02-16T09:33:05;11.93;;;7.10;;
5460;SDS011;2753;49.196;8.286;2024-02-16T09:35:32;11.67;;;6.93;;
5460;SDS011;2753;49.196;8.286;2024-02-16T09:37:58;12.90;;;7.90;;
5460;SDS011;2753;49.196;8.286;2024-02-16T09:40:23;12.53;;;6.40;;
5460;SDS011;2753;49.196;8.286;2024-02-16T09:42:49;10.60;;;5.37;;
5460;SDS011;2753;49.196;8.286;2024-02-16T09:45:15;9.33;;;5.87;;
5460;SDS011;2753;49.196;8.286;2024-02-16T09:47:45;10.80;;;6.20;;
5460;SDS011;2753;49.196;8.286;2024-02-16T09:50:14;20.00;;;8.40;;
5460;SDS011;2753;49.196;8.286;2024-02-16T09:52:40;12.50;;;6.47;;
5460;SDS011;2753;49.196;8.286;2024-02-16T09:55:11;19.90;;;6.40;;
5460;SDS011;2753;49.196;8.286;2024-02-16T09:57:38;11.87;;;6.77;;
5460;SDS011;2753;49.196;8.286;2024-02-16T10:00:03;8.27;;;5.10;;
5460;SDS011;2753;49.196;8.286;2024-02-16T10:02:40;6.60;;;5.10;;
5460;SDS011;2753;49.196;8.286;2024-02-16T10:05:30;11.10;;;5.07;;
5460;SDS011;2753;49.196;8.286;2024-02-16T10:07:56;20.70;;;7.20;;
5460;SDS011;2753;49.196;8.286;2024-02-16T10:10:22;4.93;;;3.30;;
5460;SDS011;2753;49.196;8.286;2024-02-16T10:12:49;11.20;;;3.53;;
5460;SDS011;2753;49.196;8.286;2024-02-16T10:15:19;17.77;;;3.20;;
5460;SDS011;2753;49.196;8.286;2024-02-16T10:17:56;6.40;;;2.63;;
5460;SDS011;2753;49.196;8.286;2024-02-16T10:20:28;6.40;;;3.00;;
5460;SDS011;2753;49.196;8.286;2024-02-16T10:23:07;5.73;;;2.40;;
5460;SDS011;2753;49.196;8.286;2024-02-16T10:25:37;4.13;;;2.10;;
5460;SDS011;2753;49.196;8.286;2024-02-16T10:28:09;3.90;;;2.63;;
5460;SDS011;2753;49.196;8.286;2024-02-16T10:30:39;3.97;;;2.60;;
5460;SDS011;2753;49.196;8.286;2024-02-16T10:33:08;4.70;;;2.93;;
5460;SDS011;2753;49.196;8.286;2024-02-16T10:35:34;2.20;;;2.00;;
5460;SDS011;2753;49.196;8.286;2024-02-16T10:38:01;6.80;;;3.00;;
5460;SDS011;2753;49.196;8.286;2024-02-16T10:40:38;8.90;;;3.00;;
5460;SDS011;2753;49.196;8.286;2024-02-16T10:43:08;5.80;;;3.20;;
5460;SDS011;2753;49.196;8.286;2024-02-16T10:45:35;3.70;;;3.40;;
5460;SDS011;2753;49.196;8.286;2024-02-16T10:48:05;8.00;;;2.60;;
5460;SDS011;2753;49.196;8.286;2024-02-16T10:50:32;9.77;;;3.00;;
5460;SDS011;2753;49.196;8.286;2024-02-16T10:53:00;10.17;;;2.77;;
5460;SDS011;2753;49.196;8.286;2024-02-16T10:55:33;13.53;;;2.87;;
5460;SDS011;2753;49.196;8.286;2024-02-16T10:58:00;6.10;;;2.37;;
5460;SDS011;2753;49.196;8.286;2024-02-16T11:00:25;7.60;;;3.27;;
5460;SDS011;2753;49.196;8.286;2024-02-16T11:03:01;3.93;;;2.20;;
5460;SDS011;2753;49.196;8.286;2024-02-16T11:05:32;4.70;;;3.17;;
5460;SDS011;2753;49.196;8.286;2024-02-16T11:07:59;3.90;;;2.70;;
5460;SDS011;2753;49.196;8.286;2024-02-16T11:10:29;8.70;;;5.03;;
5460;SDS011;2753;49.196;8.286;2024-02-16T11:12:59;8.43;;;3.20;;
5460;SDS011;2753;49.196;8.286;2024-02-16T11:15:28;5.27;;;2.80;;
5460;SDS011;2753;49.196;8.286;2024-02-16T11:17:56;10.87;;;3.03;;
5460;SDS011;2753;49.196;8.286;2024-02-16T11:20:25;4.80;;;2.60;;
5460;SDS011;2753;49.196;8.286;2024-02-16T11:22:53;7.87;;;2.23;;
5460;SDS011;2753;49.196;8.286;2024-02-16T11:25:39;5.63;;;2.63;;
5460;SDS011;2753;49.196;8.286;2024-02-16T11:28:14;7.23;;;2.70;;
5460;SDS011;2753;49.196;8.286;2024-02-16T11:30:41;4.03;;;2.80;;
5460;SDS011;2753;49.196;8.286;2024-02-16T11:33:10;5.60;;;2.57;;
5460;SDS011;2753;49.196;8.286;2024-02-16T11:35:36;6.60;;;2.97;;
5460;SDS011;2753;49.196;8.286;2024-02-16T11:38:01;10.30;;;3.47;;
5460;SDS011;2753;49.196;8.286;2024-02-16T11:40:27;9.50;;;3.40;;
5460;SDS011;2753;49.196;8.286;2024-02-16T11:42:59;3.93;;;2.57;;
5460;SDS011;2753;49.196;8.286;2024-02-16T11:45:25;6.97;;;4.00;;
5460;SDS011;2753;49.196;8.286;2024-02-16T11:47:51;9.03;;;3.63;;
5460;SDS011;2753;49.196;8.286;2024-02-16T11:50:28;6.23;;;3.40;;
5460;SDS011;2753;49.196;8.286;2024-02-16T11:52:54;11.53;;;3.30;;
5460;SDS011;2753;49.196;8.286;2024-02-16T11:55:20;11.27;;;3.30;;
5460;SDS011;2753;49.196;8.286;2024-02-16T11:57:46;6.77;;;3.93;;
5460;SDS011;2753;49.196;8.286;2024-02-16T12:00:15;9.20;;;3.07;;
5460;SDS011;2753;49.196;8.286;2024-02-16T12:02:41;14.80;;;4.03;;
5460;SDS011;2753;49.196;8.286;2024-02-16T12:05:07;5.93;;;2.80;;
5460;SDS011;2753;49.196;8.286;2024-02-16T12:07:36;11.33;;;3.00;;
5460;SDS011;2753;49.196;8.286;2024-02-16T12:10:05;4.87;;;1.97;;
5460;SDS011;2753;49.196;8.286;2024-02-16T12:12:32;7.40;;;3.50;;
5460;SDS011;2753;49.196;8.286;2024-02-16T12:14:58;4.40;;;2.50;;
5460;SDS011;2753;49.196;8.286;2024-02-16T12:17:24;5.80;;;2.60;;
5460;SDS011;2753;49.196;8.286;2024-02-16T12:19:51;4.87;;;2.30;;
5460;SDS011;2753;49.196;8.286;2024-02-16T12:22:17;6.40;;;2.70;;
5460;SDS011;2753;49.196;8.286;2024-02-16T12:24:44;3.43;;;2.50;;
5460;SDS011;2753;49.196;8.286;2024-02-16T12:27:14;10.83;;;2.03;;
5460;SDS011;2753;49.196;8.286;2024-02-16T12:29:39;4.70;;;2.20;;
5460;SDS011;2753;49.196;8.286;2024-02-16T12:32:06;8.50;;;2.50;;
5460;SDS011;2753;49.196;8.286;2024-02-16T12:34:34;9.30;;;3.47;;
5460;SDS011;2753;49.196;8.286;2024-02-16T12:37:03;7.43;;;1.93;;
5460;SDS011;2753;49.196;8.286;2024-02-16T12:39:33;7.90;;;2.17;;
5460;SDS011;2753;49.196;8.286;2024-02-16T12:41:59;8.33;;;2.37;;
5460;SDS011;2753;49.196;8.286;2024-02-16T12:44:25;6.57;;;2.10;;
5460;SDS011;2753;49.196;8.286;2024-02-16T12:46:51;4.60;;;2.50;;
5460;SDS011;2753;49.196;8.286;2024-02-16T12:49:19;4.57;;;2.20;;
5460;SDS011;2753;49.196;8.286;2024-02-16T12:51:51;3.97;;;1.93;;
5460;SDS011;2753;49.196;8.286;2024-02-16T12:54:17;17.67;;;2.23;;
5460;SDS011;2753;49.196;8.286;2024-02-16T12:56:47;9.03;;;2.27;;
5460;SDS011;2753;49.196;8.286;2024-02-16T12:59:13;7.63;;;2.20;;
5460;SDS011;2753;49.196;8.286;2024-02-16T13:01:39;6.10;;;1.63;;
5460;SDS011;2753;49.196;8.286;2024-02-16T13:04:06;5.50;;;1.87;;
5460;SDS011;2753;49.196;8.286;2024-02-16T13:06:32;1.90;;;1.33;;
5460;SDS011;2753;49.196;8.286;2024-02-16T13:09:01;14.13;;;1.67;;
5460;SDS011;2753;49.196;8.286;2024-02-16T13:11:27;2.93;;;1.50;;
5460;SDS011;2753;49.196;8.286;2024-02-16T13:13:54;3.37;;;1.50;;
5460;SDS011;2753;49.196;8.286;2024-02-16T13:16:19;8.47;;;2.23;;
5460;SDS011;2753;49.196;8.286;2024-02-16T13:18:46;6.03;;;1.77;;
5460;SDS011;2753;49.196;8.286;2024-02-16T13:21:11;2.27;;;1.50;;
5460;SDS011;2753;49.196;8.286;2024-02-16T13:23:37;2.60;;;1.80;;
5460;SDS011;2753;49.196;8.286;2024-02-16T13:26:03;3.33;;;1.90;;
5460;SDS011;2753;49.196;8.286;2024-02-16T13:28:29;3.47;;;1.70;;
5460;SDS011;2753;49.196;8.286;2024-02-16T13:30:55;5.43;;;2.00;;
5460;SDS011;2753;49.196;8.286;2024-02-16T13:33:21;3.97;;;1.93;;
5460;SDS011;2753;49.196;8.286;2024-02-16T13:35:46;5.37;;;1.80;;
5460;SDS011;2753;49.196;8.286;2024-02-16T13:38:13;4.10;;;1.93;;
5460;SDS011;2753;49.196;8.286;2024-02-16T13:40:39;5.80;;;2.00;;
5460;SDS011;2753;49.196;8.286;2024-02-16T13:43:04;2.70;;;1.60;;
5460;SDS011;2753;49.196;8.286;2024-02-16T13:45:47;2.33;;;1.70;;
5460;SDS011;2753;49.196;8.286;2024-02-16T13:48:19;6.63;;;1.47;;
5460;SDS011;2753;49.196;8.286;2024-02-16T13:50:46;4.03;;;1.73;;
5460;SDS011;2753;49.196;8.286;2024-02-16T13:53:13;2.37;;;1.70;;
5460;SDS011;2753;49.196;8.286;2024-02-16T13:55:39;4.20;;;2.70;;
5460;SDS011;2753;49.196;8.286;2024-02-16T13:58:05;5.23;;;3.40;;
5460;SDS011;2753;49.196;8.286;2024-02-16T14:00:31;6.30;;;2.67;;
5460;SDS011;2753;49.196;8.286;2024-02-16T14:02:56;6.33;;;2.60;;
5460;SDS011;2753;49.196;8.286;2024-02-16T14:05:22;11.50;;;3.23;;
5460;SDS011;2753;49.196;8.286;2024-02-16T14:07:50;4.70;;;1.97;;
5460;SDS011;2753;49.196;8.286;2024-02-16T14:10:16;8.30;;;2.40;;
5460;SDS011;2753;49.196;8.286;2024-02-16T14:12:42;13.57;;;2.23;;
5460;SDS011;2753;49.196;8.286;2024-02-16T14:15:11;4.67;;;1.80;;
5460;SDS011;2753;49.196;8.286;2024-02-16T14:17:40;11.47;;;2.17;;
5460;SDS011;2753;49.196;8.286;2024-02-16T14:20:07;8.47;;;2.70;;
5460;SDS011;2753;49.196;8.286;2024-02-16T14:22:33;4.57;;;2.63;;
5460;SDS011;2753;49.196;8.286;2024-02-16T14:24:59;9.53;;;2.53;;
5460;SDS011;2753;49.196;8.286;2024-02-16T14:27:24;5.70;;;2.00;;
5460;SDS011;2753;49.196;8.286;2024-02-16T14:29:50;11.73;;;3.43;;
5460;SDS011;2753;49.196;8.286;2024-02-16T14:32:16;3.70;;;2.17;;
5460;SDS011;2753;49.196;8.286;2024-02-16T14:34:42;1.80;;;1.70;;
5460;SDS011;2753;49.196;8.286;2024-02-16T14:37:09;8.23;;;2.83;;
5460;SDS011;2753;49.196;8.286;2024-02-16T14:39:35;10.47;;;2.07;;
5460;SDS011;2753;49.196;8.286;2024-02-16T14:42:00;4.40;;;2.77;;
5460;SDS011;2753;49.196;8.286;2024-02-16T14:44:26;8.53;;;2.90;;
5460;SDS011;2753;49.196;8.286;2024-02-16T14:46:51;4.50;;;2.57;;
5460;SDS011;2753;49.196;8.286;2024-02-16T14:49:18;9.60;;;3.00;;
5460;SDS011;2753;49.196;8.286;2024-02-16T14:51:49;5.47;;;2.90;;
5460;SDS011;2753;49.196;8.286;2024-02-16T14:54:15;4.87;;;2.90;;
5460;SDS011;2753;49.196;8.286;2024-02-16T14:56:41;6.80;;;2.47;;
5460;SDS011;2753;49.196;8.286;2024-02-16T14:59:07;3.50;;;1.80;;
5460;SDS011;2753;49.196;8.286;2024-02-16T15:01:35;4.07;;;2.63;;
5460;SDS011;2753;49.196;8.286;2024-02-16T15:04:01;6.20;;;3.40;;